Time;durP1;ratioP1;P1;durP2;ratioP2;P2;SDS_P1;SDS_P2;PMS_P1;PMS_P2;Temp;Humidity;BMP_temperature;BMP_pressure;BME280_temperature;BME280_humidity;BME280_pressure;Samples;Min_cycle;Max_cycle;Signal;HPM_P1;HPM_P2
2021/09/26 00:01:18;;;;;;;;;;;;;;;;;;5093787;28;19936;-71
2021/09/26 00:03:45;;;;;;;;;;;;;;;;;;5093901;28;19924;-71
2021/09/26 00:06:11;;;;;;;;;;;;;;;;;;5093794;28;19928;-72
2021/09/26 00:08:37;;;;;;;;;;;;;;;;;;5093843;28;19928;-71
2021/09/26 00:11:05;;;;;;;;;;;;;;;;;;5092931;28;19924;-71
2021/09/26 00:13:32;;;;;;;;;;;;;;;;;;5093615;28;19974;-71
2021/09/26 00:15:58;;;;;;;;;;;;;;;;;;5093720;28;19931;-71
2021/09/26 00:18:24;;;;;;;;;;;;;;;;;;5093642;28;20329;-72
2021/09/26 00:20:50;;;;;;;;;;;;;;;;;;5093326;28;19928;-71
2021/09/26 00:23:18;;;;;;;;;;;;;;;;;;5093696;28;19924;-71
2021/09/26 00:25:44;;;;;;;;;;;;;;;;;;5093115;28;19928;-71
2021/09/26 00:28:10;;;;;;;;;;;;;;;;;;5093371;28;19926;-71
2021/09/26 00:30:37;;;;;;;;;;;;;;;;;;5093381;28;19924;-72
2021/09/26 00:33:03;;;;;;;;;;;;;;;;;;5093333;28;19924;-71
2021/09/26 00:35:29;;;;;;;;;;;;;;;;;;5093579;28;19931;-72
2021/09/26 00:37:56;;;;;;;;;;;;;;;;;;5093095;28;20406;-71
2021/09/26 00:40:22;;;;;;;;;;;;;;;;;;5093009;28;19924;-71
2021/09/26 00:42:48;;;;;;;;;;;;;;;;;;5093265;28;19930;-72
2021/09/26 00:45:14;;;;;;;;;;;;;;;;;;5093089;28;20293;-71
2021/09/26 00:47:41;;;;;;;;;;;;;;;;;;5092722;28;19935;-71
2021/09/26 00:50:07;;;;;;;;;;;;;;;;;;5093278;28;19924;-71
2021/09/26 00:52:36;;;;;;;;;;;;;;;;;;5093144;28;19969;-71
2021/09/26 00:55:03;;;;;;;;;;;;;;;;;;5092918;28;19967;-71
2021/09/26 00:57:29;;;;;;;;;;;;;;;;;;5093223;28;19931;-71
2021/09/26 00:59:58;;;;;;;;;;;;;;;;;;5092544;28;20375;-71
2021/09/26 01:02:24;;;;;;;;;;;;;;;;;;5092741;28;20378;-71
2021/09/26 01:04:50;;;;;;;;;;;;;;;;;;5092884;28;19924;-71
2021/09/26 01:07:17;;;;;;;;;;;;;;;;;;5093091;28;20283;-71
2021/09/26 01:09:43;;;;;;;;;;;;;;;;;;5092520;28;19924;-72
2021/09/26 01:12:09;;;;;;;;;;;;;;;;;;5092853;28;19924;-71
2021/09/26 01:14:35;;;;;;;;;;;;;;;;;;5093010;28;19946;-71
2021/09/26 01:17:02;;;;;;;;;;;;;;;;;;5092736;28;19935;-71
2021/09/26 01:19:28;;;;;;;;;;;;;;;;;;5092916;28;19930;-71
2021/09/26 01:21:54;;;;;;;;;;;;;;;;;;5091934;28;20402;-72
2021/09/26 01:24:21;;;;;;;;;;;;;;;;;;5092380;28;19931;-71
2021/09/26 01:26:47;;;;;;;;;;;;;;;;;;5092665;28;19962;-71
2021/09/26 01:29:13;;;;;;;;;;;;;;;;;;5092512;28;20378;-71
2021/09/26 01:31:39;;;;;;;;;;;;;;;;;;5092673;28;19931;-71
2021/09/26 01:34:06;;;;;;;;;;;;;;;;;;5092748;28;19946;-71
2021/09/26 01:36:32;;;;;;;;;;;;;;;;;;5092532;28;19935;-71
2021/09/26 01:38:58;;;;;;;;;;;;;;;;;;5092489;28;19932;-71
2021/09/26 01:41:25;;;;;;;;;;;;;;;;;;5092624;28;19924;-71
2021/09/26 01:43:51;;;;;;;;;;;;;;;;;;5092188;28;19924;-72
2021/09/26 01:46:17;;;;;;;;;;;;;;;;;;5092303;28;19928;-71
2021/09/26 01:48:44;;;;;;;;;;;;;;;;;;5092433;28;19931;-71
2021/09/26 01:51:10;;;;;;;;;;;;;;;;;;5092347;28;20404;-71
2021/09/26 01:53:36;;;;;;;;;;;;;;;;;;5092542;28;19924;-71
2021/09/26 01:56:02;;;;;;;;;;;;;;;;;;5092504;28;19928;-72
2021/09/26 01:58:29;;;;;;;;;;;;;;;;;;5092277;28;19924;-71
2021/09/26 02:00:55;;;;;;;;;;;;;;;;;;5091961;28;20378;-71
2021/09/26 02:03:21;;;;;;;;;;;;;;;;;;5092208;28;19924;-72
2021/09/26 02:05:48;;;;;;;;;;;;;;;;;;5092193;28;19924;-71
2021/09/26 02:08:14;;;;;;;;;;;;;;;;;;5092067;28;20370;-71
2021/09/26 02:10:43;;;;;;;;;;;;;;;;;;5092260;28;19924;-72
2021/09/26 02:13:09;;;;;;;;;;;;;;;;;;5092490;28;19928;-71
2021/09/26 02:15:35;;;;;;;;;;;;;;;;;;5092352;28;20297;-72
2021/09/26 02:18:02;;;;;;;;;;;;;;;;;;5091906;28;19924;-72
2021/09/26 02:20:28;;;;;;;;;;;;;;;;;;5092290;28;19924;-71
2021/09/26 02:22:54;;;;;;;;;;;;;;;;;;5091781;28;20390;-71
2021/09/26 02:25:21;;;;;;;;;;;;;;;;;;5091791;28;19924;-72
2021/09/26 02:27:47;;;;;;;;;;;;;;;;;;5091994;28;19924;-71
2021/09/26 02:30:13;;;;;;;;;;;;;;;;;;5092208;28;19982;-72
2021/09/26 02:32:40;;;;;;;;;;;;;;;;;;5091654;28;20397;-71
2021/09/26 02:35:06;;;;;;;;;;;;;;;;;;5094485;28;19924;-71
2021/09/26 02:37:32;;;;;;;;;;;;;;;;;;5095892;28;19931;-71
2021/09/26 02:39:58;;;;;;;;;;;;;;;;;;5095251;28;20402;-71
2021/09/26 02:42:25;;;;;;;;;;;;;;;;;;5095355;28;19931;-74
2021/09/26 02:44:52;;;;;;;;;;;;;;;;;;5095394;28;19931;-77
2021/09/26 02:47:18;;;;;;;;;;;;;;;;;;5095711;28;19943;-74
2021/09/26 02:49:44;;;;;;;;;;;;;;;;;;5095452;28;19924;-70
2021/09/26 02:52:11;;;;;;;;;;;;;;;;;;5095105;28;19931;-70
2021/09/26 02:54:37;;;;;;;;;;;;;;;;;;5095579;28;19931;-70
2021/09/26 02:57:03;;;;;;;;;;;;;;;;;;5095474;28;19969;-70
2021/09/26 02:59:30;;;;;;;;;;;;;;;;;;5095272;28;20279;-70
2021/09/26 03:01:56;;;;;;;;;;;;;;;;;;5094799;28;19935;-70
2021/09/26 03:04:22;;;;;;;;;;;;;;;;;;5095518;28;19924;-70
2021/09/26 03:06:48;;;;;;;;;;;;;;;;;;5094609;28;20382;-70
2021/09/26 03:09:15;;;;;;;;;;;;;;;;;;5094948;28;19948;-70
2021/09/26 03:11:41;;;;;;;;;;;;;;;;;;5095238;28;19924;-70
2021/09/26 03:14:07;;;;;;;;;;;;;;;;;;5095002;28;19937;-70
2021/09/26 03:16:34;;;;;;;;;;;;;;;;;;5095379;28;19928;-70
2021/09/26 03:19:00;;;;;;;;;;;;;;;;;;5099675;28;20310;-70
2021/09/26 03:21:27;;;;;;;;;;;;;;;;;;5101293;28;19924;-70
2021/09/26 03:23:53;;;;;;;;;;;;;;;;;;5100214;28;20022;-70
2021/09/26 03:26:20;;;;;;;;;;;;;;;;;;5094562;28;20003;-70
2021/09/26 03:28:48;;;;;;;;;;;;;;;;;;5093657;28;20208;-70
2021/09/26 03:31:14;;;;;;;;;;;;;;;;;;5094755;28;19931;-70
2021/09/26 03:33:41;;;;;;;;;;;;;;;;;;5094199;28;20293;-71
2021/09/26 03:36:07;;;;;;;;;;;;;;;;;;5094677;28;19924;-70
2021/09/26 03:38:33;;;;;;;;;;;;;;;;;;5094677;28;19928;-70
2021/09/26 03:40:59;;;;;;;;;;;;;;;;;;5094035;28;19925;-70
2021/09/26 03:43:26;;;;;;;;;;;;;;;;;;5094743;28;19924;-70
2021/09/26 03:45:52;;;;;;;;;;;;;;;;;;5094073;28;19924;-70
2021/09/26 03:48:18;;;;;;;;;;;;;;;;;;5094255;28;19931;-70
2021/09/26 03:50:45;;;;;;;;;;;;;;;;;;5094194;28;19924;-70
2021/09/26 03:53:11;;;;;;;;;;;;;;;;;;5093960;28;19924;-69
2021/09/26 03:55:37;;;;;;;;;;;;;;;;;;5093772;28;19930;-70
2021/09/26 03:58:04;;;;;;;;;;;;;;;;;;5094287;28;19928;-70
2021/09/26 04:00:30;;;;;;;;;;;;;;;;;;5093854;28;19924;-69
2021/09/26 04:02:56;;;;;;;;;;;;;;;;;;5093888;28;19928;-70
2021/09/26 04:05:22;;;;;;;;;;;;;;;;;;5093723;28;20310;-70
2021/09/26 04:07:49;;;;;;;;;;;;;;;;;;5093444;28;19924;-70
2021/09/26 04:10:15;;;;;;;;;;;;;;;;;;5094152;28;19924;-70
2021/09/26 04:12:43;;;;;;;;;;;;;;;;;;5093457;28;19924;-70
2021/09/26 04:15:10;;;;;;;;;;;;;;;;;;5093701;28;20374;-70
2021/09/26 04:17:36;;;;;;;;;;;;;;;;;;5093550;28;19924;-70
2021/09/26 04:20:02;;;;;;;;;;;;;;;;;;5093859;28;19931;-70
2021/09/26 04:22:28;;;;;;;;;;;;;;;;;;5093359;28;20383;-70
2021/09/26 04:24:55;;;;;;;;;;;;;;;;;;5093052;28;19924;-70
2021/09/26 04:27:21;;;;;;;;;;;;;;;;;;5093751;28;19924;-70
2021/09/26 04:29:47;;;;;;;;;;;;;;;;;;5093038;28;20367;-70
2021/09/26 04:32:14;;;;;;;;;;;;;;;;;;5093729;28;19935;-70
2021/09/26 04:34:40;;;;;;;;;;;;;;;;;;5093285;28;19947;-70
2021/09/26 04:37:06;;;;;;;;;;;;;;;;;;5093244;28;20437;-70
2021/09/26 04:39:33;;;;;;;;;;;;;;;;;;5093208;28;19924;-70
2021/09/26 04:41:59;;;;;;;;;;;;;;;;;;5093188;28;19924;-70
2021/09/26 04:44:25;;;;;;;;;;;;;;;;;;5092972;28;19924;-70
2021/09/26 04:46:51;;;;;;;;;;;;;;;;;;5092842;28;19924;-70
2021/09/26 04:49:19;;;;;;;;;;;;;;;;;;5093366;28;19930;-70
2021/09/26 04:51:45;;;;;;;;;;;;;;;;;;5092786;28;19924;-70
2021/09/26 04:54:11;;;;;;;;;;;;;;;;;;5093334;28;19924;-70
2021/09/26 04:56:38;;;;;;;;;;;;;;;;;;5092193;28;19924;-70
2021/09/26 04:59:04;;;;;;;;;;;;;;;;;;5093280;28;19935;-70
2021/09/26 05:01:30;;;;;;;;;;;;;;;;;;5093005;28;20093;-70
2021/09/26 05:03:57;;;;;;;;;;;;;;;;;;5092565;28;19992;-70
2021/09/26 05:06:23;;;;;;;;;;;;;;;;;;5093130;28;19931;-69
2021/09/26 05:08:49;;;;;;;;;;;;;;;;;;5092553;28;19924;-69
2021/09/26 05:11:15;;;;;;;;;;;;;;;;;;5093321;28;19924;-70
2021/09/26 05:13:42;;;;;;;;;;;;;;;;;;5092464;28;20271;-70
2021/09/26 05:16:08;;;;;;;;;;;;;;;;;;5092769;28;19931;-69
2021/09/26 05:18:34;;;;;;;;;;;;;;;;;;5092965;28;19955;-70
2021/09/26 05:21:01;;;;;;;;;;;;;;;;;;5092437;28;20394;-69
2021/09/26 05:23:27;;;;;;;;;;;;;;;;;;5092468;28;19924;-69
2021/09/26 05:25:53;;;;;;;;;;;;;;;;;;5092050;28;19947;-70
2021/09/26 05:28:20;;;;;;;;;;;;;;;;;;5092863;28;19924;-69
2021/09/26 05:30:47;;;;;;;;;;;;;;;;;;5092440;28;19924;-70
2021/09/26 05:33:14;;;;;;;;;;;;;;;;;;5092789;28;20417;-71
2021/09/26 05:35:40;;;;;;;;;;;;;;;;;;5092137;28;19928;-70
2021/09/26 05:38:06;;;;;;;;;;;;;;;;;;5092811;28;19924;-70
2021/09/26 05:40:33;;;;;;;;;;;;;;;;;;5092636;28;20400;-71
2021/09/26 05:42:59;;;;;;;;;;;;;;;;;;5092297;28;19930;-71
2021/09/26 05:45:25;;;;;;;;;;;;;;;;;;5092751;28;19928;-70
2021/09/26 05:47:51;;;;;;;;;;;;;;;;;;5092134;28;19924;-71
2021/09/26 05:50:18;;;;;;;;;;;;;;;;;;5092674;28;19924;-71
2021/09/26 05:52:44;;;;;;;;;;;;;;;;;;5092394;28;20301;-71
2021/09/26 05:55:10;;;;;;;;;;;;;;;;;;5092313;28;19924;-71
2021/09/26 05:57:38;;;;;;;;;;;;;;;;;;5092217;28;19931;-71
2021/09/26 06:00:04;;;;;;;;;;;;;;;;;;5092179;28;19924;-71
2021/09/26 06:02:31;;;;;;;;;;;;;;;;;;5092096;28;19930;-71
2021/09/26 06:04:57;;;;;;;;;;;;;;;;;;5092115;28;20294;-71
2021/09/26 06:07:23;;;;;;;;;;;;;;;;;;5092206;28;19931;-71
2021/09/26 06:09:49;;;;;;;;;;;;;;;;;;5093893;28;19959;-71
2021/09/26 06:12:16;;;;;;;;;;;;;;;;;;5096291;28;19928;-71
2021/09/26 06:14:42;;;;;;;;;;;;;;;;;;5096070;28;19924;-70
2021/09/26 06:17:08;;;;;;;;;;;;;;;;;;5095879;28;19924;-71
2021/09/26 06:19:35;;;;;;;;;;;;;;;;;;5096207;28;19924;-71
2021/09/26 06:22:01;;;;;;;;;;;;;;;;;;5095850;28;19924;-71
2021/09/26 06:24:27;;;;;;;;;;;;;;;;;;5095650;28;19924;-70
2021/09/26 06:26:54;;;;;;;;;;;;;;;;;;5095935;28;19931;-71
2021/09/26 06:29:20;;;;;;;;;;;;;;;;;;5095695;28;20378;-71
2021/09/26 06:31:48;;;;;;;;;;;;;;;;;;5095397;28;19928;-70
2021/09/26 06:34:14;;;;;;;;;;;;;;;;;;5095960;28;19924;-70
2021/09/26 06:36:42;;;;;;;;;;;;;;;;;;5095494;28;19924;-70
2021/09/26 06:39:08;;;;;;;;;;;;;;;;;;5095971;28;20328;-71
2021/09/26 06:41:34;;;;;;;;;;;;;;;;;;5095569;28;19931;-71
2021/09/26 06:44:01;;;;;;;;;;;;;;;;;;5095653;28;19924;-71
2021/09/26 06:46:28;;;;;;;;;;;;;;;;;;5095827;28;19924;-71
2021/09/26 06:48:54;;;;;;;;;;;;;;;;;;5095262;28;19923;-71
2021/09/26 06:51:20;;;;;;;;;;;;;;;;;;5095388;28;20378;-71
2021/09/26 06:53:46;;;;;;;;;;;;;;;;;;5095529;28;19928;-70
2021/09/26 06:56:13;;;;;;;;;;;;;;;;;;5095709;28;19947;-71
2021/09/26 06:58:39;;;;;;;;;;;;;;;;;;5095195;28;19931;-70
2021/09/26 07:01:05;;;;;;;;;;;;;;;;;;5095346;28;19924;-71
2021/09/26 07:03:32;;;;;;;;;;;;;;;;;;5095240;28;19931;-69
2021/09/26 07:05:58;;;;;;;;;;;;;;;;;;5095080;28;19935;-69
2021/09/26 07:08:24;;;;;;;;;;;;;;;;;;5095446;28;20007;-69
2021/09/26 07:10:50;;;;;;;;;;;;;;;;;;5094723;28;19930;-69
2021/09/26 07:13:17;;;;;;;;;;;;;;;;;;5095214;28;19935;-71
2021/09/26 07:15:43;;;;;;;;;;;;;;;;;;5094788;28;20289;-69
2021/09/26 07:18:09;;;;;;;;;;;;;;;;;;5094811;28;19924;-69
2021/09/26 07:20:36;;;;;;;;;;;;;;;;;;5094744;28;19924;-70
2021/09/26 07:23:02;;;;;;;;;;;;;;;;;;5094512;28;19931;-69
2021/09/26 07:25:28;;;;;;;;;;;;;;;;;;5094623;28;19924;-70
2021/09/26 07:27:55;;;;;;;;;;;;;;;;;;5103626;28;19924;-68
2021/09/26 07:30:21;;;;;;;;;;;;;;;;;;5107927;28;19924;-68
2021/09/26 07:32:47;;;;;;;;;;;;;;;;;;5101954;28;19928;-69
2021/09/26 07:35:13;;;;;;;;;;;;;;;;;;5094746;28;19924;-69
2021/09/26 07:37:40;;;;;;;;;;;;;;;;;;5094268;28;19932;-69
2021/09/26 07:40:06;;;;;;;;;;;;;;;;;;5094748;28;19924;-69
2021/09/26 07:42:32;;;;;;;;;;;;;;;;;;5094431;28;20367;-69
2021/09/26 07:45:02;;;;;;;;;;;;;;;;;;5094271;28;19924;-71
2021/09/26 07:47:29;;;;;;;;;;;;;;;;;;5094365;28;20019;-69
2021/09/26 07:49:55;;;;;;;;;;;;;;;;;;5094346;28;19947;-69
2021/09/26 07:52:22;;;;;;;;;;;;;;;;;;5094200;28;19924;-70
2021/09/26 07:54:48;;;;;;;;;;;;;;;;;;5094147;28;19924;-70
2021/09/26 07:57:15;;;;;;;;;;;;;;;;;;5094315;28;20298;-69
2021/09/26 07:59:41;;;;;;;;;;;;;;;;;;5093688;28;20310;-69
2021/09/26 08:02:08;;;;;;;;;;;;;;;;;;5093788;28;19928;-69
2021/09/26 08:04:34;;;;;;;;;;;;;;;;;;5098883;28;19924;-69
2021/09/26 08:07:00;;;;;;;;;;;;;;;;;;5107384;28;20382;-69
2021/09/26 08:09:27;;;;;;;;;;;;;;;;;;5097392;28;19923;-69
2021/09/26 08:11:53;;;;;;;;;;;;;;;;;;5094885;28;19931;-70
2021/09/26 08:14:19;;;;;;;;;;;;;;;;;;5114291;28;20381;-69
2021/09/26 08:16:46;;;;;;;;;;;;;;;;;;5113753;28;19923;-70
2021/09/26 08:19:12;;;;;;;;;;;;;;;;;;5114096;28;19947;-70
2021/09/26 08:21:38;;;;;;;;;;;;;;;;;;5102107;28;19935;-70
2021/09/26 08:24:07;;;;;;;;;;;;;;;;;;5093366;28;19931;-70
2021/09/26 08:26:33;;;;;;;;;;;;;;;;;;5093253;28;19924;-70
2021/09/26 08:28:59;;;;;;;;;;;;;;;;;;5092947;28;19924;-70
2021/09/26 08:31:25;;;;;;;;;;;;;;;;;;5093043;28;19924;-70
2021/09/26 08:33:52;;;;;;;;;;;;;;;;;;5092937;28;20378;-70
2021/09/26 08:36:18;;;;;;;;;;;;;;;;;;5093548;28;19935;-70
2021/09/26 08:38:44;;;;;;;;;;;;;;;;;;5104928;28;19946;-70
2021/09/26 08:41:11;;;;;;;;;;;;;;;;;;5113622;28;19924;-70
2021/09/26 08:43:37;;;;;;;;;;;;;;;;;;5113736;28;19930;-70
2021/09/26 08:46:03;;;;;;;;;;;;;;;;;;5113502;28;20378;-69
2021/09/26 08:48:30;;;;;;;;;;;;;;;;;;5113423;28;19924;-71
2021/09/26 08:50:56;;;;;;;;;;;;;;;;;;5113501;28;19924;-71
2021/09/26 08:53:25;;;;;;;;;;;;;;;;;;5113375;28;20274;-75
2021/09/26 08:55:51;;;;;;;;;;;;;;;;;;5113017;28;20282;-73
2021/09/26 08:58:18;;;;;;;;;;;;;;;;;;5113480;28;19924;-71
2021/09/26 09:00:45;;;;;;;;;;;;;;;;;;5113045;28;19924;-71
2021/09/26 09:03:11;;;;;;;;;;;;;;;;;;5113516;28;19923;-72
2021/09/26 09:05:39;;;;;;;;;;;;;;;;;;5113416;28;19924;-72
2021/09/26 09:08:05;;;;;;;;;;;;;;;;;;5113110;28;19924;-72
2021/09/26 09:10:31;;;;;;;;;;;;;;;;;;5113363;28;19923;-72
2021/09/26 09:12:57;;;;;;;;;;;;;;;;;;5100500;28;20394;-72
2021/09/26 09:15:24;;;;;;;;;;;;;;;;;;5092756;28;19931;-71
2021/09/26 09:17:50;;;;;;;;;;;;;;;;;;5092755;28;19932;-71
2021/09/26 09:20:16;;;;;;;;;;;;;;;;;;5093111;28;20363;-72
2021/09/26 09:22:43;;;;;;;;;;;;;;;;;;5092293;28;19924;-71
2021/09/26 09:25:09;;;;;;;;;;;;;;;;;;5092453;28;19932;-72
2021/09/26 09:27:35;;;;;;;;;;;;;;;;;;5092563;28;20379;-72
2021/09/26 09:30:02;;;;;;;;;;;;;;;;;;5092319;28;19924;-72
2021/09/26 09:32:29;;;;;;;;;;;;;;;;;;5092832;28;19924;-73
2021/09/26 09:34:55;;;;;;;;;;;;;;;;;;5092597;28;19924;-72
2021/09/26 09:37:21;;;;;;;;;;;;;;;;;;5092862;28;19924;-72
2021/09/26 09:39:48;;;;;;;;;;;;;;;;;;5092155;28;19924;-72
2021/09/26 09:42:14;;;;;;;;;;;;;;;;;;5092477;28;19938;-72
2021/09/26 09:44:41;;;;;;;;;;;;;;;;;;5096076;28;19932;-72
2021/09/26 09:47:08;;;;;;;;;;;;;;;;;;5096879;28;20000;-72
2021/09/26 09:49:34;;;;;;;;;;;;;;;;;;5096526;28;20396;-73
2021/09/26 09:52:00;;;;;;;;;;;;;;;;;;5096271;28;19932;-73
2021/09/26 09:54:27;;;;;;;;;;;;;;;;;;5096750;28;19924;-72
2021/09/26 09:56:53;;;;;;;;;;;;;;;;;;5096144;28;20250;-72
2021/09/26 09:59:19;;;;;;;;;;;;;;;;;;5096424;28;19928;-72
2021/09/26 10:01:45;;;;;;;;;;;;;;;;;;5096427;28;19924;-72
2021/09/26 10:04:12;;;;;;;;;;;;;;;;;;5096188;28;19924;-73
2021/09/26 10:06:40;;;;;;;;;;;;;;;;;;5096360;28;20390;-72
2021/09/26 10:09:06;;;;;;;;;;;;;;;;;;5096329;28;20019;-72
2021/09/26 10:11:33;;;;;;;;;;;;;;;;;;5096763;28;20011;-72
2021/09/26 10:13:59;;;;;;;;;;;;;;;;;;5116568;28;19943;-72
2021/09/26 10:16:25;;;;;;;;;;;;;;;;;;5116292;28;20366;-71
2021/09/26 10:18:52;;;;;;;;;;;;;;;;;;5116188;28;19924;-71
2021/09/26 10:21:18;;;;;;;;;;;;;;;;;;5116661;28;19924;-72
2021/09/26 10:23:44;;;;;;;;;;;;;;;;;;5115926;28;20378;-72
2021/09/26 10:26:10;;;;;;;;;;;;;;;;;;5116305;28;19930;-72
2021/09/26 10:28:37;;;;;;;;;;;;;;;;;;5116629;28;19923;-72
2021/09/26 10:31:04;;;;;;;;;;;;;;;;;;5116128;28;20277;-72
2021/09/26 10:33:30;;;;;;;;;;;;;;;;;;5116557;28;19924;-72
2021/09/26 10:35:56;;;;;;;;;;;;;;;;;;5116087;28;20346;-72
2021/09/26 10:38:22;;;;;;;;;;;;;;;;;;5116073;28;19924;-72
2021/09/26 10:40:49;;;;;;;;;;;;;;;;;;5116020;28;19930;-72
2021/09/26 10:43:15;;;;;;;;;;;;;;;;;;5115733;28;20400;-72
2021/09/26 10:45:41;;;;;;;;;;;;;;;;;;5115650;28;19926;-72
2021/09/26 10:48:08;;;;;;;;;;;;;;;;;;5116155;28;19927;-72
2021/09/26 10:50:34;;;;;;;;;;;;;;;;;;5116047;28;20332;-72
2021/09/26 10:53:00;;;;;;;;;;;;;;;;;;5115406;28;19930;-72
2021/09/26 10:55:29;;;;;;;;;;;;;;;;;;5115074;28;19924;-73
2021/09/26 10:57:55;;;;;;;;;;;;;;;;;;5115688;28;19924;-72
2021/09/26 11:00:21;;;;;;;;;;;;;;;;;;5115570;28;19931;-72
2021/09/26 11:02:48;;;;;;;;;;;;;;;;;;5115483;28;19930;-72
2021/09/26 11:05:14;;;;;;;;;;;;;;;;;;5115775;28;19928;-72
2021/09/26 11:07:41;;;;;;;;;;;;;;;;;;5115154;28;20416;-72
2021/09/26 11:10:07;;;;;;;;;;;;;;;;;;5115705;28;19923;-72
2021/09/26 11:12:33;;;;;;;;;;;;;;;;;;5106429;28;19931;-71
2021/09/26 11:14:59;;;;;;;;;;;;;;;;;;5094919;28;19928;-72
2021/09/26 11:17:26;;;;;;;;;;;;;;;;;;5094795;28;20388;-72
2021/09/26 11:19:52;;;;;;;;;;;;;;;;;;5094574;28;19931;-72
2021/09/26 11:22:19;;;;;;;;;;;;;;;;;;5094917;28;19924;-72
2021/09/26 11:24:45;;;;;;;;;;;;;;;;;;5094590;28;19931;-72
2021/09/26 11:27:13;;;;;;;;;;;;;;;;;;5094846;28;20401;-72
2021/09/26 11:29:39;;;;;;;;;;;;;;;;;;5094615;28;20393;-71
2021/09/26 11:32:05;;;;;;;;;;;;;;;;;;5094821;28;19925;-72
2021/09/26 11:34:31;;;;;;;;;;;;;;;;;;5103623;28;19925;-72
2021/09/26 11:36:58;;;;;;;;;;;;;;;;;;5113119;28;19970;-72
2021/09/26 11:39:24;;;;;;;;;;;;;;;;;;5110210;28;20391;-72
2021/09/26 11:41:50;;;;;;;;;;;;;;;;;;5094731;28;19928;-71
2021/09/26 11:44:17;;;;;;;;;;;;;;;;;;5094624;28;19924;-71
2021/09/26 11:46:43;;;;;;;;;;;;;;;;;;5094007;28;20382;-72
2021/09/26 11:49:09;;;;;;;;;;;;;;;;;;5094221;28;19950;-73
2021/09/26 11:51:36;;;;;;;;;;;;;;;;;;5094289;28;19924;-72
2021/09/26 11:54:02;;;;;;;;;;;;;;;;;;5093985;28;20374;-72
2021/09/26 11:56:28;;;;;;;;;;;;;;;;;;5094044;28;20412;-72
2021/09/26 11:58:55;;;;;;;;;;;;;;;;;;5094058;28;19932;-72
2021/09/26 12:01:21;;;;;;;;;;;;;;;;;;5094497;28;19930;-72
2021/09/26 12:03:47;;;;;;;;;;;;;;;;;;5093829;28;19924;-72
2021/09/26 12:06:14;;;;;;;;;;;;;;;;;;5093578;28;19931;-71
2021/09/26 12:08:40;;;;;;;;;;;;;;;;;;5093499;28;19946;-71
2021/09/26 12:11:08;;;;;;;;;;;;;;;;;;5093733;28;19925;-71
2021/09/26 12:13:34;;;;;;;;;;;;;;;;;;5111008;28;19931;-72
2021/09/26 12:16:00;;;;;;;;;;;;;;;;;;5114136;28;19934;-71
2021/09/26 12:18:27;;;;;;;;;;;;;;;;;;5114033;28;19924;-72
2021/09/26 12:20:53;;;;;;;;;;;;;;;;;;5114095;28;20013;-71
2021/09/26 12:23:20;;;;;;;;;;;;;;;;;;5114186;28;20403;-71
2021/09/26 12:25:47;;;;;;;;;;;;;;;;;;5113520;28;19924;-71
2021/09/26 12:28:16;;;;;;;;;;;;;;;;;;5113889;28;19923;-71
2021/09/26 12:30:42;;;;;;;;;;;;;;;;;;5114018;28;19967;-71
2021/09/26 12:33:08;;;;;;;;;;;;;;;;;;5113780;28;20396;-71
2021/09/26 12:35:35;;;;;;;;;;;;;;;;;;5113753;28;19924;-71
2021/09/26 12:38:01;;;;;;;;;;;;;;;;;;5113809;28;19928;-72
2021/09/26 12:40:27;;;;;;;;;;;;;;;;;;5113747;28;19923;-72
2021/09/26 12:42:54;;;;;;;;;;;;;;;;;;5113766;28;19924;-72
2021/09/26 12:45:20;;;;;;;;;;;;;;;;;;5113438;28;20281;-72
2021/09/26 12:47:46;;;;;;;;;;;;;;;;;;5113309;28;19931;-71
2021/09/26 12:50:13;;;;;;;;;;;;;;;;;;5113857;28;19924;-71
2021/09/26 12:52:39;;;;;;;;;;;;;;;;;;5113229;28;20416;-71
2021/09/26 12:55:05;;;;;;;;;;;;;;;;;;5113849;28;19930;-71
2021/09/26 12:57:31;;;;;;;;;;;;;;;;;;5113414;28;20381;-71
2021/09/26 12:59:58;;;;;;;;;;;;;;;;;;5113339;28;19943;-71
2021/09/26 13:02:24;;;;;;;;;;;;;;;;;;5113330;28;20386;-72
2021/09/26 13:04:50;;;;;;;;;;;;;;;;;;5113301;28;19938;-72
2021/09/26 13:07:17;;;;;;;;;;;;;;;;;;5112983;28;20294;-71
2021/09/26 13:09:43;;;;;;;;;;;;;;;;;;5113030;28;19924;-71
2021/09/26 13:12:09;;;;;;;;;;;;;;;;;;5107905;28;19936;-71
2021/09/26 13:14:36;;;;;;;;;;;;;;;;;;5092899;28;19931;-71
2021/09/26 13:17:02;;;;;;;;;;;;;;;;;;5092553;28;19928;-72
2021/09/26 13:19:28;;;;;;;;;;;;;;;;;;5092630;28;19924;-71
2021/09/26 13:21:55;;;;;;;;;;;;;;;;;;5092445;28;19931;-71
2021/09/26 13:24:21;;;;;;;;;;;;;;;;;;5092768;28;19931;-70
2021/09/26 13:26:47;;;;;;;;;;;;;;;;;;5092750;28;19946;-71
2021/09/26 13:29:14;;;;;;;;;;;;;;;;;;5092473;28;19930;-71
2021/09/26 13:31:40;;;;;;;;;;;;;;;;;;5092765;28;19931;-71
2021/09/26 13:34:10;;;;;;;;;;;;;;;;;;5092513;28;19928;-71
2021/09/26 13:36:36;;;;;;;;;;;;;;;;;;5093096;28;19931;-72
2021/09/26 13:39:03;;;;;;;;;;;;;;;;;;5092855;28;19924;-71
2021/09/26 13:41:29;;;;;;;;;;;;;;;;;;5092589;28;19932;-71
2021/09/26 13:43:56;;;;;;;;;;;;;;;;;;5092414;28;19925;-71
2021/09/26 13:46:22;;;;;;;;;;;;;;;;;;5092343;28;19935;-71
2021/09/26 13:48:48;;;;;;;;;;;;;;;;;;5092429;28;19931;-71
2021/09/26 13:51:15;;;;;;;;;;;;;;;;;;5092835;28;19950;-71
2021/09/26 13:53:41;;;;;;;;;;;;;;;;;;5092130;28;19931;-71
2021/09/26 13:56:07;;;;;;;;;;;;;;;;;;5092581;28;19925;-71
2021/09/26 13:58:34;;;;;;;;;;;;;;;;;;5092276;28;20285;-71
2021/09/26 14:01:00;;;;;;;;;;;;;;;;;;5091929;28;19924;-71
2021/09/26 14:03:26;;;;;;;;;;;;;;;;;;5092598;28;19924;-71
2021/09/26 14:05:52;;;;;;;;;;;;;;;;;;5091941;28;19928;-71
2021/09/26 14:08:19;;;;;;;;;;;;;;;;;;5092547;28;19924;-71
2021/09/26 14:10:47;;;;;;;;;;;;;;;;;;5091859;28;20305;-71
2021/09/26 14:13:13;;;;;;;;;;;;;;;;;;5106874;28;19924;-71
2021/09/26 14:15:39;;;;;;;;;;;;;;;;;;5112343;28;20302;-71
2021/09/26 14:18:06;;;;;;;;;;;;;;;;;;5112408;28;19946;-71
2021/09/26 14:20:32;;;;;;;;;;;;;;;;;;5112758;28;19928;-71
2021/09/26 14:22:58;;;;;;;;;;;;;;;;;;5112666;28;20305;-71
2021/09/26 14:25:25;;;;;;;;;;;;;;;;;;5112207;28;19924;-69
2021/09/26 14:27:51;;;;;;;;;;;;;;;;;;5112534;28;19923;-70
2021/09/26 14:30:17;;;;;;;;;;;;;;;;;;5113695;28;19946;-70
2021/09/26 14:32:43;;;;;;;;;;;;;;;;;;5116021;28;19930;-70
2021/09/26 14:35:10;;;;;;;;;;;;;;;;;;5116458;28;19930;-69
2021/09/26 14:37:36;;;;;;;;;;;;;;;;;;5116033;28;20294;-70
2021/09/26 14:40:02;;;;;;;;;;;;;;;;;;5115771;28;19935;-69
2021/09/26 14:42:29;;;;;;;;;;;;;;;;;;5116369;28;19931;-70
2021/09/26 14:44:55;;;;;;;;;;;;;;;;;;5115466;28;19931;-70
2021/09/26 14:47:21;;;;;;;;;;;;;;;;;;5116250;28;19931;-69
2021/09/26 14:49:48;;;;;;;;;;;;;;;;;;5116179;28;19946;-69
2021/09/26 14:52:14;;;;;;;;;;;;;;;;;;5116085;28;20294;-70
2021/09/26 14:54:41;;;;;;;;;;;;;;;;;;5115435;28;19930;-70
2021/09/26 14:57:07;;;;;;;;;;;;;;;;;;5116104;28;19939;-70
2021/09/26 14:59:34;;;;;;;;;;;;;;;;;;5115421;28;20369;-70
2021/09/26 15:02:00;;;;;;;;;;;;;;;;;;5115388;28;19924;-70
2021/09/26 15:04:26;;;;;;;;;;;;;;;;;;5115650;28;19923;-70
2021/09/26 15:06:54;;;;;;;;;;;;;;;;;;5113735;28;19951;-70
2021/09/26 15:09:20;;;;;;;;;;;;;;;;;;5113626;28;19972;-70
2021/09/26 15:11:47;;;;;;;;;;;;;;;;;;5112888;28;19930;-70
2021/09/26 15:14:13;;;;;;;;;;;;;;;;;;5095083;28;20290;-70
2021/09/26 15:16:39;;;;;;;;;;;;;;;;;;5094765;28;19931;-70
2021/09/26 15:19:05;;;;;;;;;;;;;;;;;;5095179;28;19930;-70
2021/09/26 15:21:32;;;;;;;;;;;;;;;;;;5094846;28;19924;-70
2021/09/26 15:23:59;;;;;;;;;;;;;;;;;;5094740;28;19923;-70
2021/09/26 15:26:25;;;;;;;;;;;;;;;;;;5094547;28;20308;-70
2021/09/26 15:28:51;;;;;;;;;;;;;;;;;;5094470;28;19931;-70
2021/09/26 15:31:17;;;;;;;;;;;;;;;;;;5095003;28;19931;-70
2021/09/26 15:33:44;;;;;;;;;;;;;;;;;;5094498;28;20293;-70
2021/09/26 15:36:10;;;;;;;;;;;;;;;;;;5094875;28;19924;-70
2021/09/26 15:38:36;;;;;;;;;;;;;;;;;;5099952;28;19930;-70
2021/09/26 15:41:03;;;;;;;;;;;;;;;;;;5103903;28;19928;-69
2021/09/26 15:43:30;;;;;;;;;;;;;;;;;;5105279;28;19928;-70
2021/09/26 15:45:56;;;;;;;;;;;;;;;;;;5096739;28;20371;-70
2021/09/26 15:48:22;;;;;;;;;;;;;;;;;;5094723;28;20038;-70
2021/09/26 15:50:49;;;;;;;;;;;;;;;;;;5094347;28;19924;-69
2021/09/26 15:53:15;;;;;;;;;;;;;;;;;;5094392;28;19931;-69
2021/09/26 15:55:42;;;;;;;;;;;;;;;;;;5094006;28;19961;-70
2021/09/26 15:58:09;;;;;;;;;;;;;;;;;;5094161;28;20378;-70
2021/09/26 16:00:35;;;;;;;;;;;;;;;;;;5094139;28;19924;-69
2021/09/26 16:03:01;;;;;;;;;;;;;;;;;;5094004;28;19924;-70
2021/09/26 16:05:28;;;;;;;;;;;;;;;;;;5093865;28;20269;-70
2021/09/26 16:07:54;;;;;;;;;;;;;;;;;;5093623;28;19924;-69
2021/09/26 16:10:20;;;;;;;;;;;;;;;;;;5094229;28;19931;-70
2021/09/26 16:12:46;;;;;;;;;;;;;;;;;;5104473;28;20285;-70
2021/09/26 16:15:13;;;;;;;;;;;;;;;;;;5114177;28;20200;-70
2021/09/26 16:17:39;;;;;;;;;;;;;;;;;;5114022;28;19923;-70
2021/09/26 16:20:05;;;;;;;;;;;;;;;;;;5114341;28;19923;-70
2021/09/26 16:22:32;;;;;;;;;;;;;;;;;;5113988;28;20425;-70
2021/09/26 16:24:58;;;;;;;;;;;;;;;;;;5113672;28;19931;-70
2021/09/26 16:27:24;;;;;;;;;;;;;;;;;;5114274;28;20289;-70
2021/09/26 16:29:51;;;;;;;;;;;;;;;;;;5113701;28;19931;-72
2021/09/26 16:32:17;;;;;;;;;;;;;;;;;;5114141;28;19924;-72
2021/09/26 16:34:43;;;;;;;;;;;;;;;;;;5113403;28;20313;-71
2021/09/26 16:37:09;;;;;;;;;;;;;;;;;;5113626;28;19924;-70
2021/09/26 16:39:36;;;;;;;;;;;;;;;;;;5114118;28;19924;-70